Time;durP1;ratioP1;P1;durP2;ratioP2;P2;SDS_P1;SDS_P2;PMS_P1;PMS_P2;Temp;Humidity;BMP_temperature;BMP_pressure;BME280_temperature;BME280_humidity;BME280_pressure;Samples;Min_cycle;Max_cycle;Signal;HPM_P1;HPM_P2
2022/12/23 00:02:17;;;;;;;13.20;4.13;;;;;;;;;;5085551;28;20042;-64
2022/12/23 00:04:42;;;;;;;10.13;3.75;;;;;;;;;;5081983;28;20035;-65
2022/12/23 00:07:07;;;;;;;11.52;4.43;;;;;;;;;;5083209;28;20035;-61
2022/12/23 00:09:33;;;;;;;9.13;3.85;;;;;;;;;;5083175;28;20036;-61
2022/12/23 00:17:26;;;;;;;8.60;3.20;;;;;;;;;;5078868;28;20039;-53
2022/12/23 00:19:51;;;;;;;6.80;3.00;;;;;;;;;;5086447;28;20040;-52
2022/12/23 00:22:17;;;;;;;4.60;2.45;;;;;;;;;;5083677;28;20056;-64
2022/12/23 00:24:42;;;;;;;6.88;2.58;;;;;;;;;;5089890;28;20039;-64
2022/12/23 00:27:08;;;;;;;9.25;2.90;;;;;;;;;;5089013;28;20036;-61
2022/12/23 00:29:33;;;;;;;5.28;2.50;;;;;;;;;;5089327;28;20731;-63
2022/12/23 00:31:58;;;;;;;12.50;3.20;;;;;;;;;;5092064;28;20036;-63
2022/12/23 00:34:24;;;;;;;7.15;2.60;;;;;;;;;;5090894;28;20679;-63
2022/12/23 00:36:49;;;;;;;6.72;2.20;;;;;;;;;;5088216;28;20039;-59
2022/12/23 00:44:43;;;;;;;5.28;2.15;;;;;;;;;;5086879;28;20995;-65
2022/12/23 00:49:40;;;;;;;3.88;2.15;;;;;;;;;;5089180;28;20057;-56
2022/12/23 00:49:54;;;;;;;6.03;1.85;;;;;;;;;;5087754;28;20040;-56
2022/12/23 00:52:19;;;;;;;2.45;1.73;;;;;;;;;;5085224;28;20059;-63
2022/12/23 00:54:44;;;;;;;21.27;2.28;;;;;;;;;;5077824;28;20107;-62
2022/12/23 00:57:10;;;;;;;3.83;2.47;;;;;;;;;;5086322;28;20032;-58
2022/12/23 00:59:36;;;;;;;3.80;2.42;;;;;;;;;;5080356;28;20043;-58
2022/12/23 01:07:30;;;;;;;4.30;2.53;;;;;;;;;;5089124;28;20034;-57
2022/12/23 01:09:55;;;;;;;5.10;2.40;;;;;;;;;;5090080;28;20032;-59
2022/12/23 01:12:20;;;;;;;5.32;2.55;;;;;;;;;;5092666;28;20058;-65
2022/12/23 01:14:46;;;;;;;5.82;3.00;;;;;;;;;;5091500;28;20027;-62
2022/12/23 01:17:12;;;;;;;11.15;4.53;;;;;;;;;;5092032;28;20031;-61
2022/12/23 01:19:37;;;;;;;12.73;6.80;;;;;;;;;;5089514;28;20036;-60
2022/12/23 01:22:03;;;;;;;13.63;6.53;;;;;;;;;;5089760;28;20044;-62
2022/12/23 01:24:29;;;;;;;12.70;7.00;;;;;;;;;;5085490;28;20081;-62
2022/12/23 01:26:55;;;;;;;14.10;7.18;;;;;;;;;;5086463;28;20104;-55
2022/12/23 01:29:20;;;;;;;14.95;7.68;;;;;;;;;;5088254;28;20467;-55
2022/12/23 01:31:46;;;;;;;14.60;7.28;;;;;;;;;;5091256;28;20084;-64
2022/12/23 01:34:11;;;;;;;15.38;7.75;;;;;;;;;;5090145;28;20066;-64
2022/12/23 01:36:36;;;;;;;16.65;7.38;;;;;;;;;;5088496;28;20130;-65
2022/12/23 01:39:02;;;;;;;14.95;7.53;;;;;;;;;;5091190;28;20028;-64
2022/12/23 01:44:49;;;;;;;13.43;7.35;;;;;;;;;;5087016;28;20073;-61
2022/12/23 01:47:37;;;;;;;11.63;6.63;;;;;;;;;;5089135;28;20040;-62
2022/12/23 01:50:07;;;;;;;10.50;6.57;;;;;;;;;;5093438;28;20032;-62
2022/12/23 01:52:38;;;;;;;12.50;6.20;;;;;;;;;;5091124;28;20042;-60
2022/12/23 01:55:04;;;;;;;12.02;6.55;;;;;;;;;;5090347;28;20059;-60
2022/12/23 01:57:30;;;;;;;10.23;6.22;;;;;;;;;;5091643;28;20157;-60
2022/12/23 02:05:25;;;;;;;9.02;4.60;;;;;;;;;;5090124;28;20441;-53
2022/12/23 02:11:05;;;;;;;6.55;4.20;;;;;;;;;;5087481;28;20089;-52
2022/12/23 02:16:15;;;;;;;7.90;4.30;;;;;;;;;;5083976;28;20043;-51
2022/12/23 02:16:28;;;;;;;7.80;3.60;;;;;;;;;;5083134;28;20064;-54
2022/12/23 02:19:08;;;;;;;5.57;4.10;;;;;;;;;;5084377;28;20048;-54
2022/12/23 02:21:43;;;;;;;6.60;4.55;;;;;;;;;;5092693;28;20043;-55
2022/12/23 02:24:17;;;;;;;12.27;5.07;;;;;;;;;;5082834;28;20032;-57
2022/12/23 02:27:13;;;;;;;7.32;5.00;;;;;;;;;;5084096;28;20085;-53
2022/12/23 02:29:57;;;;;;;6.90;4.65;;;;;;;;;;5087992;28;20509;-53
2022/12/23 02:32:28;;;;;;;8.70;4.95;;;;;;;;;;5088715;28;20585;-58
2022/12/23 02:35:02;;;;;;;17.20;5.63;;;;;;;;;;5087817;28;20062;-53
2022/12/23 02:37:52;;;;;;;9.02;5.20;;;;;;;;;;5089898;28;20039;-53
2022/12/23 02:40:27;;;;;;;8.57;4.80;;;;;;;;;;5090880;28;20040;-55
2022/12/23 02:43:05;;;;;;;7.50;4.53;;;;;;;;;;5084469;28;20097;-55
2022/12/23 02:45:42;;;;;;;9.52;5.68;;;;;;;;;;5085331;28;20043;-56
2022/12/23 02:48:14;;;;;;;11.70;5.60;;;;;;;;;;5087491;28;20134;-55
2022/12/23 02:50:44;;;;;;;8.43;5.68;;;;;;;;;;5082300;28;20035;-54
2022/12/23 02:53:28;;;;;;;17.65;5.30;;;;;;;;;;5086685;28;20471;-57
2022/12/23 02:55:55;;;;;;;8.90;5.78;;;;;;;;;;5084171;28;20039;-53
2022/12/23 02:58:26;;;;;;;10.43;5.03;;;;;;;;;;5088727;28;20475;-54
2022/12/23 03:00:52;;;;;;;10.57;5.70;;;;;;;;;;5090163;28;20032;-53
2022/12/23 03:03:20;;;;;;;13.57;5.72;;;;;;;;;;5087840;28;20047;-55
2022/12/23 03:05:48;;;;;;;10.13;6.32;;;;;;;;;;5090946;28;20059;-53
2022/12/23 03:08:25;;;;;;;13.77;5.90;;;;;;;;;;5094113;28;20035;-60
2022/12/23 03:11:10;;;;;;;17.33;6.88;;;;;;;;;;5087261;28;20139;-55
2022/12/23 03:13:57;;;;;;;20.02;6.20;;;;;;;;;;5095501;28;20481;-56
2022/12/23 03:16:35;;;;;;;18.10;6.78;;;;;;;;;;5091616;28;20040;-56
2022/12/23 03:19:21;;;;;;;9.95;6.38;;;;;;;;;;5090828;28;20036;-57
2022/12/23 03:21:49;;;;;;;12.23;6.78;;;;;;;;;;5085864;28;20044;-65
2022/12/23 03:24:33;;;;;;;24.65;6.45;;;;;;;;;;5084192;28;20508;-65
2022/12/23 03:27:08;;;;;;;62.92;7.20;;;;;;;;;;5089582;28;20066;-65
2022/12/23 03:30:04;;;;;;;13.02;6.05;;;;;;;;;;5083661;28;20031;-64
2022/12/23 03:32:35;;;;;;;102.32;7.28;;;;;;;;;;5091940;28;20460;-63
2022/12/23 03:35:03;;;;;;;14.60;6.25;;;;;;;;;;5088736;28;20390;-66
2022/12/23 03:37:32;;;;;;;62.15;5.97;;;;;;;;;;5095176;28;20023;-64
2022/12/23 03:40:03;;;;;;;43.75;5.75;;;;;;;;;;5092995;28;20047;-62
2022/12/23 03:42:34;;;;;;;11.77;5.32;;;;;;;;;;5085875;28;20443;-63
2022/12/23 03:45:06;;;;;;;23.58;5.68;;;;;;;;;;5086828;28;20043;-63
2022/12/23 03:47:43;;;;;;;24.20;5.13;;;;;;;;;;5094771;28;20035;-63
2022/12/23 03:50:11;;;;;;;22.25;5.57;;;;;;;;;;5090817;28;20048;-62
2022/12/23 03:52:42;;;;;;;39.08;5.65;;;;;;;;;;5091276;28;20452;-62
2022/12/23 03:55:15;;;;;;;11.13;4.97;;;;;;;;;;5095385;28;20032;-61
2022/12/23 03:57:47;;;;;;;13.35;4.72;;;;;;;;;;5092077;28;20143;-61
2022/12/23 04:00:12;;;;;;;12.98;5.28;;;;;;;;;;5093592;28;20032;-62
2022/12/23 04:02:51;;;;;;;19.45;4.97;;;;;;;;;;5090439;28;20034;-62
2022/12/23 04:05:27;;;;;;;16.05;5.13;;;;;;;;;;5089330;28;20479;-62
2022/12/23 04:08:15;;;;;;;11.40;4.78;;;;;;;;;;5090749;28;20039;-62
2022/12/23 04:10:41;;;;;;;9.68;5.38;;;;;;;;;;5088817;28;20127;-62
2022/12/23 04:13:07;;;;;;;26.95;5.18;;;;;;;;;;5092500;27;20156;-61
2022/12/23 04:15:37;;;;;;;50.15;5.28;;;;;;;;;;5090229;28;20024;-61
2022/12/23 04:18:02;;;;;;;27.10;4.85;;;;;;;;;;5096336;28;20023;-61
2022/12/23 04:20:28;;;;;;;7.40;5.10;;;;;;;;;;5090784;28;20394;-61
2022/12/23 04:22:53;;;;;;;50.30;5.28;;;;;;;;;;5089740;28;20032;-61
2022/12/23 04:25:19;;;;;;;22.60;5.22;;;;;;;;;;5091684;28;20036;-61
2022/12/23 04:27:44;;;;;;;14.02;5.00;;;;;;;;;;5090054;28;20051;-61
2022/12/23 04:30:12;;;;;;;34.30;4.53;;;;;;;;;;5088508;28;20036;-61
2022/12/23 04:32:38;;;;;;;32.72;4.85;;;;;;;;;;5092664;28;20023;-61
2022/12/23 04:35:04;;;;;;;41.00;5.13;;;;;;;;;;5095777;28;20032;-61
2022/12/23 04:37:29;;;;;;;10.18;4.30;;;;;;;;;;5094280;28;20044;-61
2022/12/23 04:39:54;;;;;;;30.00;4.57;;;;;;;;;;5094143;28;20446;-61
2022/12/23 04:42:20;;;;;;;20.90;4.07;;;;;;;;;;5088925;28;20036;-62
2022/12/23 04:44:45;;;;;;;68.28;4.47;;;;;;;;;;5092312;28;20035;-63
2022/12/23 04:47:10;;;;;;;11.80;4.43;;;;;;;;;;5088420;28;20043;-62
2022/12/23 04:49:36;;;;;;;19.75;4.25;;;;;;;;;;5095594;28;20543;-62
2022/12/23 04:52:01;;;;;;;15.48;4.03;;;;;;;;;;5095983;28;20040;-61
2022/12/23 04:54:27;;;;;;;8.70;3.67;;;;;;;;;;5087524;28;20122;-62
2022/12/23 04:56:52;;;;;;;5.50;3.53;;;;;;;;;;5091140;28;20479;-63
2022/12/23 04:59:18;;;;;;;5.53;3.90;;;;;;;;;;5083732;28;20040;-63
2022/12/23 05:01:43;;;;;;;4.82;3.55;;;;;;;;;;5083222;28;20149;-60
2022/12/23 05:04:09;;;;;;;5.65;3.42;;;;;;;;;;5087706;28;20036;-62
2022/12/23 05:06:35;;;;;;;4.30;3.40;;;;;;;;;;5089406;28;20494;-61
2022/12/23 05:09:00;;;;;;;4.72;3.30;;;;;;;;;;5087596;28;20124;-61
2022/12/23 05:11:26;;;;;;;4.90;3.75;;;;;;;;;;5086885;28;20114;-61
2022/12/23 05:13:51;;;;;;;4.20;3.22;;;;;;;;;;5084539;28;20036;-57
2022/12/23 05:16:18;;;;;;;4.60;3.08;;;;;;;;;;5089593;28;20093;-57
2022/12/23 05:18:43;;;;;;;3.45;2.85;;;;;;;;;;5088984;28;20047;-55
2022/12/23 05:21:08;;;;;;;5.40;2.75;;;;;;;;;;5085383;28;20031;-59
2022/12/23 05:23:34;;;;;;;4.18;2.80;;;;;;;;;;5087041;28;20429;-59
2022/12/23 05:25:59;;;;;;;3.67;2.75;;;;;;;;;;5086393;28;20059;-56
2022/12/23 05:28:24;;;;;;;4.40;2.70;;;;;;;;;;5080351;28;20032;-60
2022/12/23 05:31:01;;;;;;;4.28;3.05;;;;;;;;;;5084992;28;20029;-60
2022/12/23 05:33:27;;;;;;;3.80;2.50;;;;;;;;;;5092517;28;20043;-59
2022/12/23 05:35:53;;;;;;;2.63;2.38;;;;;;;;;;5091578;28;20081;-60
2022/12/23 05:38:18;;;;;;;3.20;2.15;;;;;;;;;;5085134;28;20117;-56
2022/12/23 05:40:44;;;;;;;4.85;2.40;;;;;;;;;;5085282;28;20047;-60
2022/12/23 05:43:09;;;;;;;3.25;2.45;;;;;;;;;;5084894;28;20036;-60
2022/12/23 05:45:35;;;;;;;7.45;4.53;;;;;;;;;;5091117;28;20074;-60
2022/12/23 05:48:00;;;;;;;12.25;6.00;;;;;;;;;;5091034;28;20047;-59
2022/12/23 05:50:26;;;;;;;14.30;6.95;;;;;;;;;;5087274;28;20027;-61
2022/12/23 05:52:51;;;;;;;7.10;4.32;;;;;;;;;;5089679;28;20024;-59
2022/12/23 05:55:17;;;;;;;2.53;2.05;;;;;;;;;;5089462;28;20078;-60
2022/12/23 05:57:42;;;;;;;2.40;1.95;;;;;;;;;;5086822;28;20077;-53
2022/12/23 06:00:08;;;;;;;2.10;1.90;;;;;;;;;;5083853;28;20044;-59
2022/12/23 06:02:34;;;;;;;2.30;1.92;;;;;;;;;;5084152;28;20032;-55
2022/12/23 06:04:59;;;;;;;3.20;2.05;;;;;;;;;;5080693;28;20024;-59
2022/12/23 06:07:24;;;;;;;4.10;2.50;;;;;;;;;;5085102;28;20039;-56
2022/12/23 06:09:50;;;;;;;4.47;3.10;;;;;;;;;;5089000;28;20107;-58
2022/12/23 06:12:15;;;;;;;4.13;3.20;;;;;;;;;;5085459;28;20036;-56
2022/12/23 06:14:40;;;;;;;7.65;4.00;;;;;;;;;;5087104;28;20110;-58
2022/12/23 06:17:06;;;;;;;5.55;3.90;;;;;;;;;;5082659;28;20075;-56
2022/12/23 06:19:31;;;;;;;6.50;3.80;;;;;;;;;;5086899;28;20035;-55
2022/12/23 06:21:56;;;;;;;6.88;3.92;;;;;;;;;;5087020;28;20132;-55
2022/12/23 06:24:22;;;;;;;9.02;4.35;;;;;;;;;;5089302;28;20117;-57
2022/12/23 06:26:47;;;;;;;5.47;3.78;;;;;;;;;;5090382;28;20482;-59
2022/12/23 06:29:13;;;;;;;7.88;4.30;;;;;;;;;;5091961;28;20036;-58
2022/12/23 06:31:38;;;;;;;5.25;3.65;;;;;;;;;;5090469;28;20036;-57
2022/12/23 06:34:03;;;;;;;7.18;4.10;;;;;;;;;;5091631;28;20067;-54
2022/12/23 06:36:29;;;;;;;8.05;3.97;;;;;;;;;;5090706;28;20032;-59
2022/12/23 06:38:54;;;;;;;7.68;4.28;;;;;;;;;;5088508;28;20064;-57
2022/12/23 06:41:19;;;;;;;9.88;4.45;;;;;;;;;;5088389;28;20039;-55
2022/12/23 06:43:45;;;;;;;10.40;4.47;;;;;;;;;;5086174;28;20059;-56
2022/12/23 06:46:11;;;;;;;11.05;4.88;;;;;;;;;;5091700;28;20028;-55
2022/12/23 06:48:36;;;;;;;6.35;4.07;;;;;;;;;;5092548;28;20509;-58
2022/12/23 06:51:01;;;;;;;7.25;4.03;;;;;;;;;;5090776;28;20128;-59
2022/12/23 06:53:27;;;;;;;7.20;4.80;;;;;;;;;;5086836;28;20453;-59
2022/12/23 06:56:02;;;;;;;7.55;4.25;;;;;;;;;;5086420;28;20090;-59
2022/12/23 06:58:28;;;;;;;4.88;3.47;;;;;;;;;;5088270;28;20070;-59
2022/12/23 07:00:54;;;;;;;5.93;3.80;;;;;;;;;;5088126;28;21494;-56
2022/12/23 07:03:19;;;;;;;4.78;3.30;;;;;;;;;;5083605;28;20032;-57
2022/12/23 07:05:48;;;;;;;5.82;4.18;;;;;;;;;;5076384;28;20040;-57
2022/12/23 07:08:14;;;;;;;5.35;3.60;;;;;;;;;;5079708;28;20534;-59
2022/12/23 07:10:40;;;;;;;6.43;4.20;;;;;;;;;;5075759;28;20158;-59
2022/12/23 07:13:05;;;;;;;6.75;4.15;;;;;;;;;;5079078;28;20497;-52
2022/12/23 07:15:31;;;;;;;6.97;4.28;;;;;;;;;;5076598;28;20070;-52
2022/12/23 07:17:56;;;;;;;6.75;4.30;;;;;;;;;;5075127;28;20176;-52
2022/12/23 07:20:21;;;;;;;5.63;4.07;;;;;;;;;;5080200;28;20084;-55
2022/12/23 07:22:49;;;;;;;5.47;4.10;;;;;;;;;;5074307;28;20043;-53
2022/12/23 07:25:14;;;;;;;8.70;4.43;;;;;;;;;;5085996;28;20084;-54
2022/12/23 07:27:40;;;;;;;5.60;4.03;;;;;;;;;;5088825;28;20043;-58
2022/12/23 07:30:06;;;;;;;6.68;4.45;;;;;;;;;;5092912;28;20041;-56
2022/12/23 07:32:31;;;;;;;6.65;4.68;;;;;;;;;;5087945;28;20042;-55
2022/12/23 07:34:56;;;;;;;10.18;5.55;;;;;;;;;;5085553;28;20055;-58
2022/12/23 07:37:22;;;;;;;8.85;5.78;;;;;;;;;;5083732;28;20036;-58
2022/12/23 07:39:47;;;;;;;14.55;6.60;;;;;;;;;;5083386;28;20539;-58
2022/12/23 07:42:12;;;;;;;8.93;5.80;;;;;;;;;;5086774;28;20036;-59
2022/12/23 07:44:38;;;;;;;12.57;6.68;;;;;;;;;;5092172;28;20047;-56
2022/12/23 07:47:03;;;;;;;9.82;5.75;;;;;;;;;;5090827;28;20080;-56
2022/12/23 07:49:29;;;;;;;8.63;4.78;;;;;;;;;;5091272;28;20051;-60
2022/12/23 07:51:54;;;;;;;8.45;4.65;;;;;;;;;;5087891;28;20434;-55
2022/12/23 07:54:19;;;;;;;5.93;4.50;;;;;;;;;;5085415;28;20024;-57
2022/12/23 07:56:45;;;;;;;5.97;4.45;;;;;;;;;;5081951;28;20093;-57
2022/12/23 07:59:10;;;;;;;8.70;5.05;;;;;;;;;;5086455;28;20391;-58
2022/12/23 08:01:36;;;;;;;7.10;4.60;;;;;;;;;;5087641;28;20031;-59
2022/12/23 08:04:01;;;;;;;6.60;4.85;;;;;;;;;;5087001;28;20489;-59
2022/12/23 08:06:27;;;;;;;5.70;4.43;;;;;;;;;;5086981;28;20032;-59
2022/12/23 08:08:52;;;;;;;7.88;4.82;;;;;;;;;;5087425;28;20036;-58
2022/12/23 08:11:18;;;;;;;9.85;4.88;;;;;;;;;;5083018;28;20032;-59
2022/12/23 08:13:44;;;;;;;6.15;4.72;;;;;;;;;;5081715;28;20078;-57
2022/12/23 08:16:10;;;;;;;6.15;4.45;;;;;;;;;;5080626;28;20028;-58
2022/12/23 08:18:38;;;;;;;6.13;4.47;;;;;;;;;;5086213;28;20043;-58
2022/12/23 08:21:06;;;;;;;6.78;4.35;;;;;;;;;;5082448;28;20556;-59
2022/12/23 08:23:32;;;;;;;6.43;4.07;;;;;;;;;;5085369;28;20078;-57
2022/12/23 08:26:00;;;;;;;5.80;4.35;;;;;;;;;;5088375;28;20402;-57
2022/12/23 08:28:26;;;;;;;7.55;3.90;;;;;;;;;;5086943;28;20636;-58
2022/12/23 08:30:52;;;;;;;5.82;4.57;;;;;;;;;;5087836;28;20086;-58
2022/12/23 08:33:17;;;;;;;6.82;4.70;;;;;;;;;;5087972;28;20040;-59
2022/12/23 08:35:43;;;;;;;6.68;4.40;;;;;;;;;;5087147;28;20035;-55
2022/12/23 08:38:08;;;;;;;10.35;4.70;;;;;;;;;;5088252;28;20565;-56
2022/12/23 08:40:34;;;;;;;6.80;4.03;;;;;;;;;;5089020;28;20048;-58
2022/12/23 08:42:59;;;;;;;6.47;4.35;;;;;;;;;;5089149;28;20089;-57
2022/12/23 08:45:25;;;;;;;6.18;4.30;;;;;;;;;;5090288;28;20044;-57
2022/12/23 08:47:51;;;;;;;7.85;4.68;;;;;;;;;;5093794;28;20063;-57
2022/12/23 08:50:16;;;;;;;9.65;5.40;;;;;;;;;;5093934;28;20027;-59
2022/12/23 08:52:45;;;;;;;8.63;5.43;;;;;;;;;;5085860;28;20056;-61
2022/12/23 08:55:10;;;;;;;7.68;4.70;;;;;;;;;;5081150;28;20115;-58
2022/12/23 08:57:35;;;;;;;7.32;5.13;;;;;;;;;;5078817;28;20501;-58
2022/12/23 09:00:01;;;;;;;9.50;4.93;;;;;;;;;;5080297;28;20029;-58
2022/12/23 09:02:26;;;;;;;7.70;4.68;;;;;;;;;;5076150;27;20032;-58
2022/12/23 09:04:52;;;;;;;7.10;4.93;;;;;;;;;;5080117;28;20080;-58
2022/12/23 09:07:17;;;;;;;7.93;4.63;;;;;;;;;;5076272;28;20048;-58
2022/12/23 09:09:42;;;;;;;6.18;4.68;;;;;;;;;;5079020;28;20700;-58
2022/12/23 09:12:08;;;;;;;9.50;5.07;;;;;;;;;;5083270;28;20036;-57
2022/12/23 09:14:33;;;;;;;7.97;4.57;;;;;;;;;;5080370;28;20036;-56
2022/12/23 09:16:59;;;;;;;7.00;4.68;;;;;;;;;;5074044;28;20531;-58
2022/12/23 09:19:24;;;;;;;7.88;4.93;;;;;;;;;;5077460;28;20032;-59
2022/12/23 09:21:49;;;;;;;7.97;4.20;;;;;;;;;;5083548;28;20111;-60
2022/12/23 09:24:15;;;;;;;10.45;4.88;;;;;;;;;;5076297;28;20035;-56
2022/12/23 09:26:40;;;;;;;7.70;4.80;;;;;;;;;;5083828;28;20084;-62
2022/12/23 09:29:05;;;;;;;6.60;4.78;;;;;;;;;;5078620;28;20492;-57
2022/12/23 09:31:31;;;;;;;8.63;4.20;;;;;;;;;;5072542;28;20062;-62
2022/12/23 09:33:57;;;;;;;10.57;4.80;;;;;;;;;;5076700;28;20117;-58
2022/12/23 09:36:22;;;;;;;6.65;4.68;;;;;;;;;;5076100;28;21634;-60
2022/12/23 09:38:56;;;;;;;7.40;4.78;;;;;;;;;;5077706;28;20868;-58
2022/12/23 09:41:28;;;;;;;;;;;;;;;;;;5079555;28;20027;-51
2022/12/23 09:44:15;;;;;;;7.18;4.07;;;;;;;;;;5080357;28;19934;-52
2022/12/23 09:47:10;;;;;;;9.75;4.88;;;;;;;;;;5076009;28;20160;-55
2022/12/23 09:49:42;;;;;;;12.88;5.05;;;;;;;;;;5076032;28;20043;-56
2022/12/23 09:52:15;;;;;;;6.47;4.05;;;;;;;;;;5078446;28;20028;-54
2022/12/23 09:54:44;;;;;;;6.07;3.95;;;;;;;;;;5074828;28;20051;-56
2022/12/23 09:57:16;;;;;;;6.85;4.18;;;;;;;;;;5076230;28;20122;-57
2022/12/23 09:59:51;;;;;;;7.00;3.92;;;;;;;;;;5080079;28;20028;-55
2022/12/23 10:02:38;;;;;;;5.07;3.65;;;;;;;;;;5082406;28;20035;-56
2022/12/23 10:05:19;;;;;;;5.25;3.53;;;;;;;;;;5084193;28;20028;-55
2022/12/23 10:07:52;;;;;;;8.13;3.70;;;;;;;;;;5082104;28;20046;-55
2022/12/23 10:10:41;;;;;;;6.53;4.10;;;;;;;;;;5079925;28;20031;-56
2022/12/23 10:13:18;;;;;;;10.20;3.65;;;;;;;;;;5086178;28;20047;-57
2022/12/23 10:15:47;;;;;;;5.68;3.97;;;;;;;;;;5077948;28;20600;-55
2022/12/23 10:18:37;;;;;;;6.95;3.95;;;;;;;;;;5083103;28;20047;-54
2022/12/23 10:21:10;;;;;;;4.97;4.00;;;;;;;;;;5084196;28;20036;-56
2022/12/23 10:23:43;;;;;;;4.63;3.92;;;;;;;;;;5088013;28;20040;-67
2022/12/23 10:26:24;;;;;;;5.30;3.90;;;;;;;;;;5091239;28;20436;-59
2022/12/23 10:28:57;;;;;;;5.30;3.83;;;;;;;;;;5089990;28;20508;-56
2022/12/23 10:31:29;;;;;;;;;;;;;;;;;;5092142;28;20396;-53
2022/12/23 10:34:04;;;;;;;5.13;3.75;;;;;;;;;;5089464;28;20309;-57
2022/12/23 10:36:50;;;;;;;6.28;3.53;;;;;;;;;;5084769;27;20039;-54
2022/12/23 10:39:22;;;;;;;6.75;4.63;;;;;;;;;;5086202;28;20039;-54
2022/12/23 10:42:00;;;;;;;5.90;4.38;;;;;;;;;;5089606;28;20028;-62
2022/12/23 10:44:43;;;;;;;8.63;5.68;;;;;;;;;;5085324;28;20032;-61
2022/12/23 10:47:32;;;;;;;6.93;4.85;;;;;;;;;;5080782;28;20190;-54
2022/12/23 10:50:19;;;;;;;6.95;4.68;;;;;;;;;;5089495;28;20375;-52
2022/12/23 10:52:47;;;;;;;7.65;4.65;;;;;;;;;;5084948;28;20042;-55
2022/12/23 10:55:21;;;;;;;11.55;6.60;;;;;;;;;;5082403;28;20035;-55
2022/12/23 10:57:47;;;;;;;16.67;9.73;;;;;;;;;;5087793;28;20024;-54
2022/12/23 11:00:20;;;;;;;15.02;9.00;;;;;;;;;;5089242;28;20024;-55
2022/12/23 11:03:27;;;;;;;12.98;8.57;;;;;;;;;;5091915;28;20031;-54
2022/12/23 11:05:54;;;;;;;10.27;6.05;;;;;;;;;;5063757;28;20048;-60
2022/12/23 11:08:21;;;;;;;7.53;5.18;;;;;;;;;;5078040;28;20075;-58
2022/12/23 11:10:47;;;;;;;32.03;18.05;;;;;;;;;;5080638;28;20428;-60
2022/12/23 11:13:39;;;;;;;30.58;18.80;;;;;;;;;;5085964;28;20042;-59
2022/12/23 11:16:26;;;;;;;10.63;5.18;;;;;;;;;;5083117;28;20041;-61
2022/12/23 11:18:56;;;;;;;6.10;4.35;;;;;;;;;;5079797;28;20035;-60
2022/12/23 11:21:22;;;;;;;8.95;4.40;;;;;;;;;;5089365;28;20039;-59
2022/12/23 11:24:06;;;;;;;9.23;4.63;;;;;;;;;;5082066;28;22488;-62
2022/12/23 11:26:32;;;;;;;7.80;4.40;;;;;;;;;;5082666;28;20040;-61
2022/12/23 11:29:05;;;;;;;8.32;4.15;;;;;;;;;;5078801;28;20044;-61
2022/12/23 11:31:34;;;;;;;;;;;;;;;;;;5077929;28;20031;-59
2022/12/23 11:34:15;;;;;;;6.32;3.90;;;;;;;;;;5085167;28;20057;-61
2022/12/23 11:36:40;;;;;;;8.35;3.35;;;;;;;;;;5084859;28;20036;-61
2022/12/23 11:39:20;;;;;;;7.00;4.05;;;;;;;;;;5091230;28;20042;-59
2022/12/23 11:41:49;;;;;;;4.97;3.33;;;;;;;;;;5090579;28;20036;-61
2022/12/23 11:44:39;;;;;;;5.13;3.55;;;;;;;;;;5092545;28;20053;-60
2022/12/23 11:47:30;;;;;;;6.13;3.28;;;;;;;;;;5086138;28;20044;-62
2022/12/23 11:49:58;;;;;;;7.30;3.53;;;;;;;;;;5088741;28;20052;-61
2022/12/23 11:52:27;;;;;;;6.20;3.40;;;;;;;;;;5089820;28;20047;-60
2022/12/23 11:54:56;;;;;;;5.13;3.75;;;;;;;;;;5086000;28;20034;-61
2022/12/23 11:57:32;;;;;;;4.90;3.53;;;;;;;;;;5088510;28;20046;-61
2022/12/23 12:00:01;;;;;;;4.45;3.28;;;;;;;;;;5090780;28;20043;-61
2022/12/23 12:02:43;;;;;;;6.32;3.92;;;;;;;;;;5090162;28;20036;-61
2022/12/23 12:05:15;;;;;;;5.57;3.33;;;;;;;;;;5084729;28;20043;-61
2022/12/23 12:07:43;;;;;;;3.65;2.90;;;;;;;;;;5088259;28;20031;-59
2022/12/23 12:10:15;;;;;;;10.32;3.65;;;;;;;;;;5089114;28;20038;-59
2022/12/23 12:12:40;;;;;;;6.35;3.78;;;;;;;;;;5084358;28;20060;-59
2022/12/23 12:15:07;;;;;;;5.43;3.70;;;;;;;;;;5086311;28;20082;-59
2022/12/23 12:17:41;;;;;;;6.68;4.07;;;;;;;;;;5087723;28;20036;-59
2022/12/23 12:20:25;;;;;;;8.05;4.00;;;;;;;;;;5085645;28;20707;-58
2022/12/23 12:22:58;;;;;;;6.13;3.85;;;;;;;;;;5087713;28;20149;-59
2022/12/23 12:25:36;;;;;;;5.03;3.65;;;;;;;;;;5089703;28;20081;-61
2022/12/23 12:28:10;;;;;;;6.20;3.75;;;;;;;;;;5092396;28;20089;-59
2022/12/23 12:30:45;;;;;;;6.43;3.63;;;;;;;;;;5091950;28;20031;-60
2022/12/23 12:33:14;;;;;;;8.25;3.88;;;;;;;;;;5086037;28;20043;-60
2022/12/23 12:35:56;;;;;;;7.00;3.83;;;;;;;;;;5089297;28;20078;-61
2022/12/23 12:38:27;;;;;;;8.02;4.57;;;;;;;;;;5089994;28;20557;-62
2022/12/23 12:41:05;;;;;;;5.30;4.15;;;;;;;;;;5088165;28;20157;-64
2022/12/23 12:43:33;;;;;;;7.32;4.45;;;;;;;;;;5085178;28;20040;-57
2022/12/23 12:46:09;;;;;;;5.80;4.00;;;;;;;;;;5092029;28;20535;-59
2022/12/23 12:48:50;;;;;;;6.72;4.43;;;;;;;;;;5091726;28;20043;-60
2022/12/23 12:51:21;;;;;;;7.38;4.40;;;;;;;;;;5085584;28;20068;-59
2022/12/23 12:54:19;;;;;;;9.27;4.30;;;;;;;;;;5085365;28;20024;-59
2022/12/23 12:56:54;;;;;;;7.35;4.00;;;;;;;;;;5085993;28;20505;-60
2022/12/23 12:59:33;;;;;;;5.82;4.10;;;;;;;;;;5089190;28;20077;-59
2022/12/23 13:02:23;;;;;;;6.72;4.18;;;;;;;;;;5089236;27;20063;-63
2022/12/23 13:05:01;;;;;;;7.88;4.28;;;;;;;;;;5087783;28;20085;-59
2022/12/23 13:07:27;;;;;;;7.75;4.05;;;;;;;;;;5087676;28;20019;-59
2022/12/23 13:10:12;;;;;;;7.82;4.03;;;;;;;;;;5090205;28;20101;-59
2022/12/23 13:12:50;;;;;;;7.82;4.47;;;;;;;;;;5087329;28;20103;-57
2022/12/23 13:15:43;;;;;;;6.20;4.25;;;;;;;;;;5086847;28;20040;-57
2022/12/23 13:18:29;;;;;;;5.45;4.30;;;;;;;;;;5087992;28;20032;-59
2022/12/23 13:21:02;;;;;;;9.55;4.55;;;;;;;;;;5084284;28;20131;-60
2022/12/23 13:23:45;;;;;;;8.57;4.80;;;;;;;;;;5079492;28;20059;-61
2022/12/23 13:26:15;;;;;;;10.45;5.22;;;;;;;;;;5084676;28;20039;-59
2022/12/23 13:28:43;;;;;;;8.35;5.30;;;;;;;;;;5079305;28;20073;-60
2022/12/23 13:31:32;;;;;;;7.07;4.82;;;;;;;;;;5069668;28;20040;-60
2022/12/23 13:34:11;;;;;;;6.07;4.38;;;;;;;;;;5079752;28;20028;-57
2022/12/23 13:36:58;;;;;;;7.45;4.47;;;;;;;;;;5075551;28;20047;-58
2022/12/23 13:39:26;;;;;;;7.82;4.65;;;;;;;;;;5077720;28;20570;-54
2022/12/23 13:41:55;;;;;;;7.43;4.47;;;;;;;;;;5075679;28;20106;-57
2022/12/23 13:44:21;;;;;;;7.50;4.68;;;;;;;;;;5086793;28;20059;-57
2022/12/23 13:47:14;;;;;;;8.40;5.13;;;;;;;;;;5079771;28;20123;-60
2022/12/23 13:49:47;;;;;;;6.15;4.68;;;;;;;;;;5086126;28;20432;-57
2022/12/23 13:52:27;;;;;;;8.30;4.05;;;;;;;;;;5071801;28;20044;-58
2022/12/23 13:55:17;;;;;;;6.22;4.45;;;;;;;;;;5086037;28;20036;-60
2022/12/23 13:58:09;;;;;;;9.23;5.45;;;;;;;;;;5086058;28;20098;-59
2022/12/23 14:00:35;;;;;;;12.40;8.50;;;;;;;;;;5083245;28;20051;-60
2022/12/23 14:03:00;;;;;;;8.23;5.43;;;;;;;;;;5085065;28;20160;-58
2022/12/23 14:05:31;;;;;;;7.50;5.25;;;;;;;;;;5083990;28;20032;-61
2022/12/23 14:08:31;;;;;;;7.25;5.32;;;;;;;;;;5074739;28;20035;-60
2022/12/23 14:11:09;;;;;;;11.05;6.40;;;;;;;;;;5085235;28;20082;-60
2022/12/23 14:13:49;;;;;;;12.32;6.57;;;;;;;;;;5082538;28;20032;-60
2022/12/23 14:16:37;;;;;;;9.50;6.57;;;;;;;;;;5081517;28;20347;-63
2022/12/23 14:19:17;;;;;;;11.32;6.78;;;;;;;;;;5084316;28;20028;-61
2022/12/23 14:22:24;;;;;;;8.55;5.93;;;;;;;;;;5084723;28;20036;-58
2022/12/23 14:25:17;;;;;;;9.65;5.90;;;;;;;;;;5084780;28;20076;-60
2022/12/23 14:28:10;;;;;;;13.10;7.10;;;;;;;;;;5082522;28;20063;-58
2022/12/23 14:30:43;;;;;;;11.52;7.00;;;;;;;;;;5083631;28;20028;-57
2022/12/23 14:33:27;;;;;;;12.60;7.15;;;;;;;;;;5085747;28;20032;-59
2022/12/23 14:36:13;;;;;;;9.38;6.13;;;;;;;;;;5083449;28;21567;-57
2022/12/23 14:38:38;;;;;;;9.88;6.45;;;;;;;;;;5084176;28;20032;-58
2022/12/23 14:41:22;;;;;;;10.52;6.20;;;;;;;;;;5084652;28;20489;-61
2022/12/23 14:43:54;;;;;;;;;;;;;;;;;;5069587;28;20433;-59
2022/12/23 14:46:34;;;;;;;11.48;7.35;;;;;;;;;;5074990;28;20073;-58
2022/12/23 14:49:00;;;;;;;15.30;8.48;;;;;;;;;;5074030;28;20044;-61
2022/12/23 14:51:37;;;;;;;13.35;8.43;;;;;;;;;;5080094;28;20039;-58
2022/12/23 14:54:02;;;;;;;13.27;7.93;;;;;;;;;;5081479;28;20035;-58
2022/12/23 14:56:42;;;;;;;13.43;7.47;;;;;;;;;;5089015;28;20046;-62
2022/12/23 14:59:29;;;;;;;9.48;6.10;;;;;;;;;;5082483;28;20126;-62
2022/12/23 15:01:58;;;;;;;8.05;5.25;;;;;;;;;;5086626;28;20040;-58
2022/12/23 15:04:40;;;;;;;8.60;5.53;;;;;;;;;;5082072;28;20044;-64
2022/12/23 15:07:13;;;;;;;7.18;5.05;;;;;;;;;;5079936;28;20047;-71
2022/12/23 15:09:53;;;;;;;8.57;5.10;;;;;;;;;;5086373;28;20032;-72
2022/12/23 15:12:25;;;;;;;5.82;4.07;;;;;;;;;;5083333;28;20165;-69
2022/12/23 15:14:53;;;;;;;6.55;3.75;;;;;;;;;;5080188;28;20044;-67
2022/12/23 15:17:31;;;;;;;4.80;3.17;;;;;;;;;;5080994;28;20043;-75
2022/12/23 15:20:08;;;;;;;6.70;3.55;;;;;;;;;;5090655;28;20084;-71
2022/12/23 15:22:34;;;;;;;5.20;3.90;;;;;;;;;;5080969;28;21241;-76
2022/12/23 15:24:59;;;;;;;7.43;3.53;;;;;;;;;;5083828;28;20035;-71
2022/12/23 15:27:26;;;;;;;5.75;3.83;;;;;;;;;;5083401;28;20097;-71
2022/12/23 15:29:53;;;;;;;6.22;3.53;;;;;;;;;;5083770;28;20085;-70
2022/12/23 15:32:22;;;;;;;6.05;2.97;;;;;;;;;;5083364;28;20040;-69
2022/12/23 15:34:49;;;;;;;6.00;3.00;;;;;;;;;;5090270;28;20406;-69